Col Jabara, KS

7:18 AM CDT on August 26, 2016 (GMT -0500)
Col Jabara | | Change Station

Elev 1421 ft 37.75 °N, 97.22 °W | Updated 24 minutes ago

Partly Cloudy
Partly Cloudy
68 °F
Feels Like 68 °F
N
0
Wind Variable Wind from North

Today
High -- | Low -- °F
--% Chance of Precip.
Yesterday
High -- | Low -- °F
Precip. -- in
Pressure 30.04 in
Visibility 10.0 miles
Clouds Few 6500 ft
Few 9000 ft
Dew Point 67 °F
Humidity 96%
Rainfall 0.15 in
Snow Depth Not available.
6:54 AM 8:06 PM
Waning Crescent, 35% visible
METAR KAAO 261154Z AUTO 00000KT 10SM FEW065 FEW090 20/19 A3007 RMK AO2 RAE00B32E42 SLP171 P0000 60015 70020 T02000194 10217 20194 56005
Pressure 30.04 in
Visibility 10.0 miles
Clouds Few 6500 ft
Few 9000 ft
Dew Point 67 °F
Humidity 96%
Rainfall 0.15 in
Snow Depth Not available.
6:54 AM 8:06 PM
Waning Crescent, 35% visible
METAR KAAO 261154Z AUTO 00000KT 10SM FEW065 FEW090 20/19 A3007 RMK AO2 RAE00B32E42 SLP171 P0000 60015 70020 T02000194 10217 20194 56005

10-Day Weather Forecast

Almanac

Astronomy

Aug. 26, 2016 Rise Set
Actual Time
Civil Twilight
Nautical Twilight
Astronomical Twilight
Moon
Length of Visible Light
Length of Day
Tomorrow will be .
, % of the Moon is Illuminated

Today's Extremes

State Highs State Lows

Community

WunderPhotos

Upload Photos

1,935,077 photos uploaded!

WunderBlog® & News

Nearby

Air Quality

  Air Quality AQ Index Pollutant
Not available.

Snow Depth

Station Depth Elevation

Earthquake Activity

City Distance Mag. Time & Date
Minimum magnitude displayed is 2.5.

Coastal Water Temperatures

Place Temperature

Stations

Nearby Weather Stations

Station Location Temp. Windchill Dew Point Humidity Wind Precip. Elev Updated Type
                   

Watches & Warnings

There are currently no watches in effect.